Aviation Digital Data Service (ADDS)

Output produced by METARs form (1115 UTC 24 April 2017)
found at http://www.aviationweather.gov/adds/metars/
 
TAF TNCA 241100Z 2412/2512 10017KT 9999 SCT020